Time;durP1;ratioP1;P1;durP2;ratioP2;P2;SDS_P1;SDS_P2;PMS_P1;PMS_P2;Temp;Humidity;BMP_temperature;BMP_pressure;BME280_temperature;BME280_humidity;BME280_pressure;Samples;Min_cycle;Max_cycle;Signal;HPM_P1;HPM_P2
2024/04/06 00:03:45;;;;;;;7.70;2.80;;;5.30;99.90;;;;;;20337157;29;20100;-38
2024/04/06 00:13:47;;;;;;;4.53;2.80;;;5.30;99.90;;;;;;20365815;29;20100;-38
2024/04/06 00:23:49;;;;;;;5.90;3.10;;;5.10;99.90;;;;;;20346131;29;20123;-38
2024/04/06 00:33:51;;;;;;;8.57;3.13;;;5.00;99.90;;;;;;20319000;29;20045;-38
2024/04/06 00:43:53;;;;;;;7.28;2.83;;;5.10;99.90;;;;;;20271553;29;20095;-38
2024/04/06 00:53:54;;;;;;;6.53;3.53;;;5.10;99.90;;;;;;20304806;29;20111;-37
2024/04/06 01:03:56;;;;;;;7.72;2.65;;;5.10;99.90;;;;;;20331540;29;20048;-37
2024/04/06 01:13:58;;;;;;;8.27;3.30;;;5.00;99.90;;;;;;20347275;29;20028;-38
2024/04/06 01:24:22;;;;;;;8.70;3.85;;;5.10;99.90;;;;;;20365995;29;20072;-38
2024/04/06 01:34:23;;;;;;;8.88;4.50;;;5.00;99.90;;;;;;20424237;29;20038;-37
2024/04/06 01:44:25;;;;;;;11.07;5.13;;;5.10;99.90;;;;;;20422804;29;20039;-38
2024/04/06 01:54:28;;;;;;;6.53;4.70;;;5.20;99.90;;;;;;20394564;29;20040;-38
2024/04/06 02:04:30;;;;;;;14.60;6.93;;;5.20;99.90;;;;;;20422038;29;20566;-38
2024/04/06 02:14:31;;;;;;;9.65;5.95;;;5.20;99.90;;;;;;20421981;29;20118;-38
2024/04/06 02:24:34;;;;;;;10.88;5.43;;;5.30;99.90;;;;;;20419896;29;20055;-38
2024/04/06 02:34:36;;;;;;;10.00;5.07;;;5.30;99.90;;;;;;20402238;29;20377;-38
2024/04/06 02:44:37;;;;;;;12.68;5.63;;;5.50;99.90;;;;;;20176738;29;20068;-38
2024/04/06 02:54:40;;;;;;;7.53;4.63;;;5.40;99.90;;;;;;20242820;29;20048;-40
2024/04/06 03:04:42;;;;;;;8.10;4.88;;;5.40;99.90;;;;;;20196878;29;20073;-37
2024/04/06 03:14:44;;;;;;;6.63;3.40;;;5.50;99.90;;;;;;20214550;29;20412;-38
2024/04/06 03:24:46;;;;;;;5.53;3.60;;;5.40;99.90;;;;;;20348990;29;20103;-38
2024/04/06 03:34:48;;;;;;;6.50;3.47;;;5.40;99.90;;;;;;20301953;29;20047;-37
2024/04/06 03:44:50;;;;;;;9.10;3.00;;;5.50;99.90;;;;;;20291034;29;20499;-37
2024/04/06 03:54:55;;;;;;;7.45;2.28;;;5.30;99.90;;;;;;20315067;29;20036;-38
2024/04/06 04:04:57;;;;;;;10.02;3.35;;;5.10;99.90;;;;;;20274546;29;20108;-37
2024/04/06 04:15:10;;;;;;;7.85;3.70;;;4.80;99.90;;;;;;20337398;29;20061;-38
2024/04/06 04:25:12;;;;;;;8.52;3.38;;;4.70;99.90;;;;;;20379680;29;20182;-38
2024/04/06 04:35:14;;;;;;;10.65;4.28;;;4.80;99.90;;;;;;20340528;29;20048;-38
2024/04/06 04:45:15;;;;;;;6.70;2.90;;;4.80;99.90;;;;;;20340571;29;20528;-38
2024/04/06 04:55:17;;;;;;;5.10;3.10;;;4.80;99.90;;;;;;20309224;29;20111;-39
2024/04/06 05:05:19;;;;;;;9.15;3.75;;;5.00;99.90;;;;;;20360901;29;20047;-37
2024/04/06 05:15:21;;;;;;;5.07;2.80;;;5.00;99.90;;;;;;20390155;29;20044;-38
2024/04/06 05:25:23;;;;;;;7.93;3.40;;;5.10;99.90;;;;;;20425304;29;20052;-38
2024/04/06 05:35:24;;;;;;;7.43;3.90;;;5.40;99.90;;;;;;20424402;29;20040;-38
2024/04/06 05:45:26;;;;;;;15.50;4.90;;;5.50;99.90;;;;;;20391346;29;20790;-38
2024/04/06 05:55:28;;;;;;;8.02;3.70;;;5.60;99.90;;;;;;20413208;29;20060;-39
2024/04/06 06:05:30;;;;;;;12.15;4.28;;;5.70;99.90;;;;;;20371344;29;20028;-38
2024/04/06 06:15:32;;;;;;;8.38;3.72;;;5.80;99.90;;;;;;20406577;29;20047;-38
2024/04/06 06:25:34;;;;;;;5.53;3.08;;;6.20;99.90;;;;;;20413748;29;20495;-38
2024/04/06 06:35:36;;;;;;;5.60;2.92;;;6.50;99.90;;;;;;20350717;29;20047;-38
2024/04/06 06:45:38;;;;;;;7.90;2.85;;;6.90;99.90;;;;;;20388829;29;20087;-38
2024/04/06 06:55:43;;;;;;;7.47;3.72;;;7.80;99.90;;;;;;20383871;29;20040;-38
2024/04/06 07:05:56;;;;;;;7.90;3.75;;;9.10;99.90;;;;;;21305859;27;20337;-40
2024/04/06 07:16:06;;;;;;;7.50;4.07;;;10.70;99.90;;;;;;21305337;27;20053;-40
2024/04/06 07:26:11;;;;;;;8.82;4.13;;;12.10;99.90;;;;;;21126970;28;20128;-42
2024/04/06 07:36:13;;;;;;;8.65;3.80;;;13.10;99.90;;;;;;21109977;28;20043;-40
2024/04/06 07:46:15;;;;;;;6.53;4.40;;;14.00;99.90;;;;;;21123259;28;20066;-40
2024/04/06 07:56:17;;;;;;;9.80;4.50;;;14.30;99.90;;;;;;21116243;27;20030;-42
2024/04/06 08:06:19;;;;;;;7.47;3.58;;;14.40;99.90;;;;;;21300344;27;20027;-42
2024/04/06 08:16:21;;;;;;;9.77;4.15;;;14.80;99.90;;;;;;21244591;27;20085;-40
2024/04/06 08:26:23;;;;;;;8.63;4.40;;;15.20;99.90;;;;;;21239841;27;20083;-42
2024/04/06 08:36:28;;;;;;;6.57;4.55;;;15.60;99.90;;;;;;21205317;27;20039;-46
2024/04/06 08:46:30;;;;;;;8.23;5.68;;;16.00;99.90;;;;;;21209152;27;20073;-43
2024/04/06 08:56:33;;;;;;;9.70;4.93;;;16.60;99.90;;;;;;21242156;27;20047;-44
2024/04/06 09:06:39;;;;;;;10.35;5.43;;;16.80;99.90;;;;;;21240902;27;20034;-42
2024/04/06 09:16:42;;;;;;;11.25;6.28;;;16.50;99.90;;;;;;21239511;27;20383;-44
2024/04/06 09:26:46;;;;;;;9.15;5.53;;;16.80;99.90;;;;;;21238705;27;20083;-44
2024/04/06 09:36:50;;;;;;;9.15;5.43;;;17.30;99.90;;;;;;21188119;27;20084;-41
2024/04/06 09:46:52;;;;;;;9.85;5.13;;;17.30;99.90;;;;;;21240787;27;20536;-43
2024/04/06 09:56:54;;;;;;;11.48;6.00;;;17.70;99.90;;;;;;21237854;27;20484;-42
2024/04/06 10:06:57;;;;;;;12.68;6.90;;;18.10;99.90;;;;;;21219958;27;20035;-43
2024/04/06 10:17:07;;;;;;;10.43;6.32;;;17.90;99.90;;;;;;21214023;27;20100;-44
2024/04/06 10:27:15;;;;;;;14.07;7.10;;;18.10;99.90;;;;;;21229146;27;20429;-44
2024/04/06 10:37:16;;;;;;;11.32;7.07;;;18.50;99.90;;;;;;21212102;27;20079;-42
2024/04/06 10:47:18;;;;;;;10.93;6.47;;;18.50;99.90;;;;;;21234588;27;20318;-44
2024/04/06 10:57:22;;;;;;;10.63;6.60;;;18.50;99.90;;;;;;21212624;27;20103;-42
2024/04/06 11:07:24;;;;;;;14.05;7.53;;;18.80;99.90;;;;;;21233187;28;20035;-43
2024/04/06 11:17:29;;;;;;;11.43;6.95;;;19.30;99.90;;;;;;21230092;28;20801;-42
2024/04/06 11:27:31;;;;;;;13.05;6.72;;;19.50;99.90;;;;;;21223797;28;20031;-46
2024/04/06 11:37:34;;;;;;;10.25;6.05;;;19.80;99.90;;;;;;21225286;28;20039;-42
2024/04/06 11:47:36;;;;;;;10.02;5.40;;;19.90;99.90;;;;;;21237253;27;20039;-44
2024/04/06 11:57:41;;;;;;;10.93;6.43;;;20.00;99.90;;;;;;21245463;27;20043;-42
2024/04/06 12:07:43;;;;;;;10.13;5.30;;;20.00;99.90;;;;;;21247977;27;20031;-42
2024/04/06 12:17:45;;;;;;;10.23;6.05;;;19.70;99.90;;;;;;21217833;27;20429;-42
2024/04/06 12:27:47;;;;;;;10.35;6.97;;;20.10;99.90;;;;;;21245297;27;20035;-44
2024/04/06 12:37:49;;;;;;;15.48;9.13;;;20.00;99.90;;;;;;21220775;27;20496;-43
2024/04/06 12:47:50;;;;;;;13.55;9.15;;;19.80;99.90;;;;;;21224646;27;20135;-43
2024/04/06 12:57:52;;;;;;;18.75;10.50;;;19.80;99.90;;;;;;21239690;27;20043;-41
2024/04/06 13:07:54;;;;;;;15.00;10.05;;;19.90;99.90;;;;;;21241398;27;20310;-43
2024/04/06 13:17:56;;;;;;;15.32;10.50;;;19.80;99.90;;;;;;21235535;27;20035;-43
2024/04/06 13:27:58;;;;;;;13.38;9.40;;;19.80;99.90;;;;;;21238290;27;20027;-42
2024/04/06 13:38:00;;;;;;;13.80;9.43;;;19.60;99.90;;;;;;21227423;27;20054;-42
2024/04/06 13:48:13;;;;;;;14.80;9.30;;;19.40;99.90;;;;;;21233970;27;20035;-45
2024/04/06 13:58:15;;;;;;;12.68;8.98;;;19.40;99.90;;;;;;21236400;27;20035;-42
2024/04/06 14:08:18;;;;;;;16.15;10.68;;;19.30;99.90;;;;;;21213882;27;20035;-43
2024/04/06 14:18:19;;;;;;;11.73;8.43;;;19.30;99.90;;;;;;21229729;27;20027;-42
2024/04/06 14:28:24;;;;;;;12.77;7.43;;;19.00;99.90;;;;;;21232434;27;20034;-41
2024/04/06 14:38:26;;;;;;;14.68;9.73;;;19.10;99.90;;;;;;21223336;27;20093;-43
2024/04/06 14:48:28;;;;;;;11.90;8.90;;;19.00;99.90;;;;;;21232364;27;20027;-42
2024/04/06 14:58:30;;;;;;;15.15;9.90;;;18.70;99.90;;;;;;21213062;27;20043;-42
2024/04/06 15:08:33;;;;;;;15.98;9.68;;;18.20;99.90;;;;;;21229538;28;20043;-43
2024/04/06 15:18:35;;;;;;;9.80;8.60;;;17.30;99.90;;;;;;21228958;27;20353;-42
2024/04/06 15:28:36;;;;;;;11.32;9.00;;;16.60;99.90;;;;;;21214416;27;20039;-43
2024/04/06 15:38:39;;;;;;;13.88;9.35;;;15.90;99.90;;;;;;21247702;27;20476;-41
2024/04/06 15:48:41;;;;;;;14.88;10.63;;;15.50;99.90;;;;;;21247215;27;20858;-40
2024/04/06 15:58:42;;;;;;;15.48;9.23;;;15.00;99.90;;;;;;21241195;27;20047;-41
2024/04/06 16:08:45;;;;;;;13.98;8.45;;;14.80;99.90;;;;;;21242086;27;20031;-39
2024/04/06 16:18:48;;;;;;;14.88;10.38;;;14.40;99.90;;;;;;21246772;27;20031;-40
2024/04/06 16:28:51;;;;;;;15.13;9.90;;;13.60;99.90;;;;;;21244771;27;20039;-40
2024/04/06 16:38:53;;;;;;;20.10;9.90;;;12.90;99.90;;;;;;21242305;27;20559;-41
2024/04/06 16:49:00;;;;;;;15.23;9.43;;;12.30;99.90;;;;;;21246368;27;20421;-39
2024/04/06 16:59:02;;;;;;;15.27;8.82;;;11.70;99.90;;;;;;21244815;27;20508;-39
2024/04/06 17:09:05;;;;;;;16.80;9.55;;;11.10;99.90;;;;;;21244227;27;20031;-39
2024/04/06 17:19:06;;;;;;;14.95;9.68;;;10.60;99.90;;;;;;21243360;27;20027;-40
2024/04/06 17:29:08;;;;;;;23.55;11.95;;;10.20;99.90;;;;;;21243027;27;20030;-39
2024/04/06 17:39:13;;;;;;;16.77;11.60;;;9.90;99.90;;;;;;21241811;27;20060;-39
2024/04/06 17:49:15;;;;;;;23.50;11.57;;;9.80;99.90;;;;;;21238271;27;20361;-40
2024/04/06 17:59:17;;;;;;;14.05;10.07;;;9.50;99.90;;;;;;21237644;27;20076;-38
2024/04/06 18:09:19;;;;;;;19.05;10.65;;;9.20;99.90;;;;;;21238764;27;20055;-39
2024/04/06 18:19:24;;;;;;;18.75;11.00;;;9.00;99.90;;;;;;21238465;27;20027;-39
2024/04/06 18:29:29;;;;;;;9.20;5.13;;;8.90;99.90;;;;;;21235738;27;20035;-38
2024/04/06 18:39:34;;;;;;;13.38;7.03;;;8.70;99.90;;;;;;21237306;27;20027;-38
2024/04/06 18:49:36;;;;;;;14.73;8.02;;;8.50;99.90;;;;;;21216547;27;20121;-38
2024/04/06 18:59:38;;;;;;;12.63;7.10;;;8.30;99.90;;;;;;21234632;27;20035;-39
2024/04/06 19:09:40;;;;;;;12.68;5.18;;;8.30;99.90;;;;;;21233746;28;20100;-38
2024/04/06 19:19:41;;;;;;;11.25;7.65;;;8.20;99.90;;;;;;21234352;28;20039;-39
2024/04/06 19:29:44;;;;;;;15.65;8.80;;;8.10;99.90;;;;;;21234967;28;20023;-38
2024/04/06 19:39:46;;;;;;;14.85;8.98;;;8.00;99.90;;;;;;21233878;28;20031;-38
2024/04/06 19:49:48;;;;;;;11.63;6.03;;;8.00;99.90;;;;;;21231336;28;20015;-37
2024/04/06 19:59:51;;;;;;;10.10;4.45;;;7.90;99.90;;;;;;21149639;28;20043;-38
2024/04/06 20:09:52;;;;;;;10.57;6.93;;;7.90;99.90;;;;;;21229904;27;20034;-39
2024/04/06 20:19:55;;;;;;;14.20;6.85;;;8.10;99.90;;;;;;21227540;27;20110;-39
2024/04/06 20:29:57;;;;;;;8.98;6.05;;;8.10;99.90;;;;;;21247375;27;20031;-39
2024/04/06 20:39:59;;;;;;;12.80;6.22;;;8.20;99.90;;;;;;21245131;27;20088;-37
2024/04/06 20:50:01;;;;;;;3.65;2.75;;;8.00;99.90;;;;;;21244049;27;20035;-38
2024/04/06 21:00:04;;;;;;;7.07;3.55;;;7.90;99.90;;;;;;21243343;27;20092;-37
2024/04/06 21:10:07;;;;;;;6.53;3.50;;;7.90;99.90;;;;;;21242491;27;20084;-38
2024/04/06 21:20:10;;;;;;;4.30;2.85;;;8.00;99.90;;;;;;21242280;27;20035;-37
2024/04/06 21:30:15;;;;;;;6.60;3.47;;;8.00;99.90;;;;;;21241097;27;20092;-38
2024/04/06 21:40:18;;;;;;;5.38;3.30;;;7.90;99.90;;;;;;21240950;27;20032;-38
2024/04/06 21:50:20;;;;;;;10.88;3.35;;;7.80;99.90;;;;;;21234258;27;20033;-38
2024/04/06 22:00:28;;;;;;;6.88;3.63;;;7.70;99.90;;;;;;21236420;27;20039;-38
2024/04/06 22:10:31;;;;;;;5.22;3.53;;;7.80;99.90;;;;;;21239146;27;20965;-38
2024/04/06 22:20:32;;;;;;;8.57;4.10;;;7.60;99.90;;;;;;21239116;27;20031;-39
2024/04/06 22:30:35;;;;;;;9.95;4.43;;;7.40;99.90;;;;;;21220255;27;20095;-39
2024/04/06 22:40:36;;;;;;;8.00;4.30;;;7.40;99.90;;;;;;21218812;27;20035;-38
2024/04/06 22:50:38;;;;;;;8.57;4.10;;;7.70;99.90;;;;;;21236778;27;20034;-38
2024/04/06 23:00:41;;;;;;;8.50;4.43;;;7.70;99.90;;;;;;21233391;27;20111;-39
2024/04/06 23:10:46;;;;;;;9.93;3.40;;;7.70;99.90;;;;;;21217761;28;20065;-38
2024/04/06 23:20:48;;;;;;;3.53;2.05;;;7.80;99.90;;;;;;21232573;28;20065;-37
2024/04/06 23:30:50;;;;;;;6.28;3.08;;;7.90;99.90;;;;;;21215211;28;20430;-38
2024/04/06 23:40:53;;;;;;;4.78;2.50;;;7.90;99.90;;;;;;21238242;27;20084;-38
2024/04/06 23:50:56;;;;;;;5.20;2.90;;;8.00;99.90;;;;;;21250887;27;20027;-39
